createdAt,value
2019-04-10T00:00:47.769Z,20.57
2019-04-10T00:01:37.565Z,23.05
2019-04-10T00:02:29.283Z,25.05
2019-04-10T00:03:27.822Z,27.82
2019-04-10T00:04:12.578Z,23.83
2019-04-10T00:05:03.385Z,22.65
2019-04-10T00:05:54.234Z,25.08
2019-04-10T00:06:46.422Z,25.90
2019-04-10T00:07:37.472Z,24.45
2019-04-10T00:08:26.844Z,24.82
2019-04-10T00:09:23.146Z,23.62
2019-04-10T00:10:14.415Z,25.32
2019-04-10T00:11:05.095Z,25.65
2019-04-10T00:11:56.995Z,24.63
2019-04-10T00:12:47.653Z,23.02
2019-04-10T00:13:38.535Z,25.92
2019-04-10T00:14:28.978Z,23.12
2019-04-10T00:15:20.590Z,22.62
2019-04-10T00:16:10.542Z,21.75
2019-04-10T00:17:00.748Z,21.23
2019-04-10T00:17:51.961Z,20.23
2019-04-10T00:18:42.993Z,20.60
2019-04-10T00:19:35.792Z,24.00
2019-04-10T00:20:25.411Z,24.37
2019-04-10T00:21:15.909Z,25.95
2019-04-10T00:22:06.760Z,22.65
2019-04-10T00:22:57.311Z,25.00
2019-04-10T00:23:49.309Z,26.17
2019-04-10T00:24:40.065Z,25.75
2019-04-10T00:25:30.165Z,24.52
2019-04-10T00:26:21.561Z,28.17
2019-04-10T00:27:10.712Z,25.95
2019-04-10T00:28:01.313Z,26.33
2019-04-10T00:28:52.569Z,23.18
2019-04-10T00:29:44.671Z,24.25
2019-04-10T00:30:35.413Z,22.40
2019-04-10T00:31:26.396Z,26.48
2019-04-10T00:32:16.966Z,25.25
2019-04-10T00:33:08.230Z,26.35
2019-04-10T00:33:59.003Z,25.95
2019-04-10T00:34:50.034Z,24.37
2019-04-10T00:35:40.399Z,25.23
2019-04-10T00:36:33.171Z,23.42
2019-04-10T00:37:27.214Z,25.77
2019-04-10T00:38:13.864Z,26.68
2019-04-10T00:39:06.453Z,25.65
2019-04-10T00:39:57.114Z,24.40
2019-04-10T00:40:47.911Z,26.33
2019-04-10T00:41:40.657Z,26.73
2019-04-10T00:42:31.206Z,25.77
2019-04-10T00:43:22.597Z,24.18
2019-04-10T00:44:13.371Z,24.23
2019-04-10T00:45:03.965Z,24.15
2019-04-10T00:45:53.655Z,25.48
2019-04-10T00:46:44.783Z,25.40
2019-04-10T00:47:35.703Z,23.95
2019-04-10T00:48:26.014Z,22.13
2019-04-10T00:49:16.188Z,25.45
2019-04-10T00:50:06.504Z,25.65
2019-04-10T00:50:57.084Z,27.13
2019-04-10T00:51:48.228Z,25.43
2019-04-10T00:52:38.948Z,25.85
2019-04-10T00:53:29.761Z,28.23
2019-04-10T00:54:20.156Z,28.30
2019-04-10T00:55:11.274Z,26.85
2019-04-10T00:56:01.956Z,27.13
2019-04-10T00:56:52.794Z,24.30
2019-04-10T00:57:42.801Z,27.62
2019-04-10T00:58:33.265Z,25.92
2019-04-10T00:59:24.598Z,25.92
2019-04-10T01:00:15.167Z,25.02
2019-04-10T01:01:05.713Z,23.67
2019-04-10T01:02:03.255Z,26.25
2019-04-10T01:02:53.653Z,24.02
2019-04-10T01:03:44.163Z,26.45
2019-04-10T01:04:34.300Z,25.85
2019-04-10T01:05:28.643Z,24.52
2019-04-10T01:06:19.888Z,23.52
2019-04-10T01:07:10.681Z,22.17
2019-04-10T01:08:00.806Z,23.73
2019-04-10T01:08:51.670Z,23.70
2019-04-10T01:09:41.720Z,25.40
2019-04-10T01:10:34.526Z,25.20
2019-04-10T01:11:23.956Z,24.15
2019-04-10T01:12:14.743Z,22.62
2019-04-10T01:13:05.245Z,23.38
2019-04-10T01:13:55.531Z,25.97
2019-04-10T01:14:47.659Z,24.32
2019-04-10T01:15:38.602Z,22.95
2019-04-10T01:16:28.466Z,21.85
2019-04-10T01:17:19.510Z,23.05
2019-04-10T01:18:10.934Z,21.40
2019-04-10T01:19:01.632Z,23.18
2019-04-10T01:19:50.735Z,25.20
2019-04-10T01:20:41.840Z,24.12
2019-04-10T01:21:34.646Z,23.55
2019-04-10T01:22:25.349Z,25.10
2019-04-10T01:23:16.120Z,23.80
2019-04-10T01:24:07.312Z,22.80
2019-04-10T01:24:58.536Z,23.85
2019-04-10T01:25:49.086Z,23.45
2019-04-10T01:26:41.698Z,27.67
2019-04-10T01:27:32.804Z,26.30
2019-04-10T01:28:22.896Z,26.15
2019-04-10T01:29:13.442Z,23.40
2019-04-10T01:30:04.331Z,26.07
2019-04-10T01:30:54.935Z,25.57
2019-04-10T01:31:46.403Z,26.00
2019-04-10T01:32:39.779Z,26.37
2019-04-10T01:33:30.366Z,26.12
2019-04-10T01:34:21.085Z,27.32
2019-04-10T01:35:13.978Z,26.25
2019-04-10T01:36:06.940Z,27.15
2019-04-10T01:36:57.284Z,28.47
2019-04-10T01:37:53.476Z,26.17
2019-04-10T01:38:41.874Z,25.90
2019-04-10T01:39:32.602Z,26.12
2019-04-10T01:40:23.407Z,26.68
2019-04-10T01:41:13.896Z,25.37
2019-04-10T01:42:04.356Z,26.15
2019-04-10T01:43:09.955Z,26.45
2019-04-10T01:43:46.869Z,28.15
2019-04-10T01:44:41.210Z,28.55
2019-04-10T01:45:32.098Z,27.52
2019-04-10T01:46:24.415Z,23.73
2019-04-10T01:47:15.125Z,28.45
2019-04-10T01:48:05.871Z,28.65
2019-04-10T01:48:56.006Z,29.70
2019-04-10T01:49:47.388Z,25.90
2019-04-10T01:50:39.224Z,24.60
2019-04-10T01:51:31.551Z,21.42
2019-04-10T01:52:22.733Z,25.72
2019-04-10T01:53:15.057Z,25.68
2019-04-10T01:54:06.886Z,26.37
2019-04-10T01:54:57.738Z,24.63
2019-04-10T01:55:49.222Z,22.75
2019-04-10T01:56:43.873Z,21.97
2019-04-10T01:57:34.619Z,23.60
2019-04-10T01:58:25.300Z,23.57
2019-04-10T01:59:15.922Z,23.50
2019-04-10T02:00:06.776Z,25.95
2019-04-10T02:01:26.210Z,24.65
2019-04-10T02:02:25.382Z,24.98
2019-04-10T02:03:15.978Z,23.83
2019-04-10T02:04:08.876Z,25.37
2019-04-10T02:05:00.639Z,24.60
2019-04-10T02:05:49.963Z,25.60
2019-04-10T02:06:43.401Z,23.80
2019-04-10T02:07:34.088Z,26.10
2019-04-10T02:08:25.833Z,26.15
2019-04-10T02:09:16.722Z,26.07
2019-04-10T02:10:08.227Z,25.27
2019-04-10T02:10:58.880Z,26.20
2019-04-10T02:11:50.227Z,24.75
2019-04-10T02:12:43.788Z,24.20
2019-04-10T02:13:33.894Z,23.12
2019-04-10T02:14:24.552Z,25.12
2019-04-10T02:15:15.936Z,22.75
2019-04-10T02:16:06.224Z,26.25
2019-04-10T02:16:59.044Z,25.50
2019-04-10T02:17:49.762Z,25.43
2019-04-10T02:18:41.584Z,25.92
2019-04-10T02:19:32.262Z,27.07
2019-04-10T02:20:22.965Z,25.10
2019-04-10T02:21:14.137Z,24.98
2019-04-10T02:22:05.104Z,26.52
2019-04-10T02:22:56.188Z,26.30
2019-04-10T02:23:46.960Z,27.27
2019-04-10T02:24:38.923Z,27.37
2019-04-10T02:25:30.621Z,23.87
2019-04-10T02:26:21.315Z,25.40
2019-04-10T02:27:12.725Z,25.68
2019-04-10T02:28:04.869Z,24.95
2019-04-10T02:28:55.494Z,26.15
2019-04-10T02:29:44.534Z,27.27
2019-04-10T02:30:37.301Z,26.15
2019-04-10T02:31:28.572Z,25.82
2019-04-10T02:32:18.772Z,28.17
2019-04-10T02:33:08.474Z,28.47
2019-04-10T02:33:59.921Z,28.17
2019-04-10T02:34:50.608Z,27.52
2019-04-10T02:35:40.348Z,28.52
2019-04-10T02:36:31.551Z,27.40
2019-04-10T02:37:22.808Z,26.52
2019-04-10T02:38:33.891Z,25.88
2019-04-10T02:39:15.168Z,25.52
2019-04-10T02:40:00.064Z,26.35
2019-04-10T02:40:47.474Z,23.60
2019-04-10T02:41:38.657Z,27.93
2019-04-10T02:42:30.093Z,26.77
2019-04-10T02:43:20.917Z,24.85
2019-04-10T02:44:10.285Z,23.83
2019-04-10T02:45:02.232Z,24.12
2019-04-10T02:45:51.530Z,27.13
2019-04-10T02:46:42.827Z,28.47
2019-04-10T02:47:34.578Z,24.70
2019-04-10T02:48:25.206Z,24.98
2019-04-10T02:49:16.358Z,25.85
2019-04-10T02:50:07.897Z,24.37
2019-04-10T02:50:59.570Z,24.50
2019-04-10T02:51:49.949Z,27.60
2019-04-10T02:52:41.215Z,27.95
2019-04-10T02:53:31.743Z,28.80
2019-04-10T02:54:22.836Z,28.98
2019-04-10T02:55:14.424Z,26.68
2019-04-10T02:56:05.395Z,26.57
2019-04-10T02:56:54.933Z,27.32
2019-04-10T02:57:47.374Z,23.70
2019-04-10T02:58:38.536Z,26.10
2019-04-10T02:59:29.256Z,27.32
2019-04-10T03:00:20.294Z,28.15
2019-04-10T03:01:11.217Z,26.05
2019-04-10T03:02:02.442Z,26.73
2019-04-10T03:02:55.158Z,25.80
2019-04-10T03:03:44.690Z,24.80
2019-04-10T03:04:35.217Z,24.10
2019-04-10T03:05:27.100Z,25.30
2019-04-10T03:06:15.686Z,27.75
2019-04-10T03:07:07.697Z,26.68
2019-04-10T03:07:58.247Z,28.57
2019-04-10T03:09:02.137Z,29.20
2019-04-10T03:09:52.919Z,28.75
2019-04-10T03:10:37.180Z,25.02
2019-04-10T03:11:22.218Z,25.35
2019-04-10T03:12:13.032Z,26.17
2019-04-10T03:13:02.725Z,24.72
2019-04-10T03:13:53.514Z,23.83
2019-04-10T03:14:45.968Z,25.72
2019-04-10T03:15:34.298Z,28.90
2019-04-10T03:16:24.843Z,27.22
2019-04-10T03:17:15.586Z,26.23
2019-04-10T03:18:06.483Z,29.55
2019-04-10T03:18:56.996Z,25.43
2019-04-10T03:19:47.111Z,27.73
2019-04-10T03:20:38.404Z,26.00
2019-04-10T03:21:29.148Z,26.10
2019-04-10T03:22:18.853Z,24.23
2019-04-10T03:23:09.884Z,26.05
2019-04-10T03:24:00.785Z,27.10
2019-04-10T03:24:51.442Z,28.87
2019-04-10T03:25:42.045Z,28.83
2019-04-10T03:26:34.082Z,26.45
2019-04-10T03:27:25.978Z,27.45
2019-04-10T03:28:16.660Z,26.65
2019-04-10T03:29:07.352Z,24.15
2019-04-10T03:29:56.718Z,28.50
2019-04-10T03:30:49.415Z,31.15
2019-04-10T03:31:39.201Z,29.90
2019-04-10T03:32:59.668Z,27.60
2019-04-10T03:33:54.441Z,24.92
2019-04-10T03:34:46.115Z,27.35
2019-04-10T03:35:38.809Z,24.12
2019-04-10T03:36:36.274Z,26.52
2019-04-10T03:37:27.038Z,27.75
2019-04-10T03:38:18.410Z,27.42
2019-04-10T03:39:10.682Z,25.43
2019-04-10T03:40:00.828Z,28.32
2019-04-10T03:40:51.913Z,29.98
2019-04-10T03:41:42.385Z,25.20
2019-04-10T03:42:32.980Z,27.32
2019-04-10T03:43:23.885Z,26.02
2019-04-10T03:44:14.591Z,23.98
2019-04-10T03:45:07.410Z,25.43
2019-04-10T03:45:57.755Z,26.77
2019-04-10T03:46:48.939Z,26.45
2019-04-10T03:47:39.651Z,28.25
2019-04-10T03:48:29.346Z,25.77
2019-04-10T03:49:20.005Z,26.95
2019-04-10T03:50:12.027Z,25.52
2019-04-10T03:51:03.877Z,28.98
2019-04-10T03:51:54.591Z,30.35
2019-04-10T03:52:46.424Z,31.68
2019-04-10T03:53:38.186Z,28.77
2019-04-10T03:54:28.843Z,26.70
2019-04-10T03:55:20.901Z,26.07
2019-04-10T03:56:13.735Z,27.02
2019-04-10T03:57:04.574Z,28.67
2019-04-10T03:57:55.280Z,31.87
2019-04-10T03:58:47.987Z,32.70
2019-04-10T03:59:40.035Z,29.57
2019-04-10T04:00:30.011Z,27.37
2019-04-10T04:01:20.480Z,29.60
2019-04-10T04:02:11.632Z,29.60
2019-04-10T04:03:02.581Z,27.65
2019-04-10T04:03:53.282Z,32.73
2019-04-10T04:04:44.366Z,29.65
2019-04-10T04:05:37.093Z,27.65
2019-04-10T04:06:27.881Z,26.37
2019-04-10T04:07:18.166Z,25.75
2019-04-10T04:08:08.640Z,27.25
2019-04-10T04:09:06.705Z,24.87
2019-04-10T04:09:51.512Z,25.97
2019-04-10T04:10:42.664Z,30.95
2019-04-10T04:11:33.548Z,26.68
2019-04-10T04:12:24.619Z,27.55
2019-04-10T04:13:15.303Z,27.67
2019-04-10T04:14:06.200Z,27.52
2019-04-10T04:14:56.927Z,25.88
2019-04-10T04:15:48.436Z,26.52
2019-04-10T04:16:39.213Z,30.85
2019-04-10T04:17:32.539Z,28.98
2019-04-10T04:18:23.269Z,23.62
2019-04-10T04:19:15.645Z,29.48
2019-04-10T04:20:06.408Z,29.45
2019-04-10T04:20:59.356Z,28.20
2019-04-10T04:21:50.042Z,29.00
2019-04-10T04:22:41.115Z,28.92
2019-04-10T04:23:32.023Z,28.77
2019-04-10T04:24:25.495Z,31.12
2019-04-10T04:25:16.913Z,27.73
2019-04-10T04:26:07.241Z,26.52
2019-04-10T04:27:01.034Z,26.50
2019-04-10T04:27:52.473Z,26.65
2019-04-10T04:28:44.016Z,30.48
2019-04-10T04:29:36.228Z,31.75
2019-04-10T04:30:30.313Z,28.20
2019-04-10T04:31:21.149Z,28.30
2019-04-10T04:32:15.556Z,27.13
2019-04-10T04:33:06.584Z,25.95
2019-04-10T04:33:59.910Z,28.30
2019-04-10T04:34:50.696Z,29.55
2019-04-10T04:35:43.152Z,30.65
2019-04-10T04:36:35.194Z,32.15
2019-04-10T04:37:26.256Z,30.15
2019-04-10T04:38:17.826Z,28.23
2019-04-10T04:39:20.629Z,29.37
2019-04-10T04:40:03.063Z,30.70
2019-04-10T04:40:54.905Z,28.92
2019-04-10T04:41:46.058Z,30.20
2019-04-10T04:42:36.688Z,26.45
2019-04-10T04:43:28.489Z,29.45
2019-04-10T04:44:18.322Z,27.32
2019-04-10T04:45:10.771Z,29.75
2019-04-10T04:46:01.229Z,29.95
2019-04-10T04:46:52.710Z,28.47
2019-04-10T04:47:43.306Z,26.62
2019-04-10T04:48:34.674Z,27.30
2019-04-10T04:49:24.756Z,28.85
2019-04-10T04:50:16.330Z,26.45
2019-04-10T04:51:06.749Z,28.55
2019-04-10T04:51:58.146Z,27.62
2019-04-10T04:52:49.308Z,25.17
2019-04-10T04:53:39.830Z,28.23
2019-04-10T04:54:30.913Z,28.30
2019-04-10T04:55:21.788Z,30.10
2019-04-10T04:56:11.560Z,29.82
2019-04-10T04:57:02.757Z,28.80
2019-04-10T04:57:53.775Z,33.13
2019-04-10T04:58:45.631Z,33.83
2019-04-10T04:59:34.693Z,32.00
2019-04-10T05:00:26.256Z,27.77
2019-04-10T05:01:17.010Z,30.88
2019-04-10T05:02:07.940Z,34.30
2019-04-10T05:02:59.790Z,37.20
2019-04-10T05:03:50.466Z,38.13
2019-04-10T05:04:41.709Z,33.13
2019-04-10T05:05:31.402Z,35.88
2019-04-10T05:06:22.333Z,33.98
2019-04-10T05:07:13.553Z,37.70
2019-04-10T05:08:05.359Z,36.77
2019-04-10T05:08:55.392Z,32.50
2019-04-10T05:09:46.282Z,32.60
2019-04-10T05:10:37.837Z,33.98
2019-04-10T05:11:28.658Z,35.43
2019-04-10T05:12:20.093Z,38.80
2019-04-10T05:13:10.706Z,36.05
2019-04-10T05:14:04.968Z,38.92
2019-04-10T05:14:55.747Z,35.15
2019-04-10T05:15:46.410Z,36.53
2019-04-10T05:16:39.468Z,38.38
2019-04-10T05:17:28.853Z,35.83
2019-04-10T05:18:19.278Z,34.10
2019-04-10T05:19:10.206Z,32.70
2019-04-10T05:20:02.886Z,38.10
2019-04-10T05:20:52.620Z,35.23
2019-04-10T05:21:45.662Z,35.13
2019-04-10T05:22:36.366Z,37.25
2019-04-10T05:23:27.426Z,36.20
2019-04-10T05:24:18.649Z,37.88
2019-04-10T05:25:11.108Z,37.48
2019-04-10T05:26:02.440Z,35.28
2019-04-10T05:26:53.555Z,37.85
2019-04-10T05:27:43.519Z,36.20
2019-04-10T05:28:34.044Z,33.98
2019-04-10T05:29:28.317Z,36.98
2019-04-10T05:30:16.455Z,34.48
2019-04-10T05:31:07.179Z,38.30
2019-04-10T05:31:57.472Z,37.90
2019-04-10T05:32:47.964Z,37.85
2019-04-10T05:33:38.728Z,34.90
2019-04-10T05:34:29.537Z,36.77
2019-04-10T05:35:19.412Z,35.38
2019-04-10T05:36:10.050Z,38.08
2019-04-10T05:37:01.018Z,35.10
2019-04-10T05:37:51.975Z,37.38
2019-04-10T05:38:43.977Z,35.40
2019-04-10T05:39:40.573Z,38.70
2019-04-10T05:40:24.324Z,36.20
2019-04-10T05:41:15.473Z,35.92
2019-04-10T05:42:06.428Z,33.13
2019-04-10T05:42:57.460Z,34.20
2019-04-10T05:43:48.933Z,37.03
2019-04-10T05:44:40.203Z,34.40
2019-04-10T05:45:30.408Z,34.83
2019-04-10T05:46:21.668Z,37.42
2019-04-10T05:47:12.139Z,38.53
2019-04-10T05:48:03.316Z,36.28
2019-04-10T05:48:54.151Z,37.03
2019-04-10T05:49:45.049Z,33.58
2019-04-10T05:50:36.458Z,33.58
2019-04-10T05:51:28.865Z,37.67
2019-04-10T05:52:20.035Z,33.38
2019-04-10T05:53:09.822Z,33.05
2019-04-10T05:54:00.284Z,37.08
2019-04-10T05:54:51.648Z,38.70
2019-04-10T05:55:42.241Z,34.85
2019-04-10T05:56:34.339Z,32.83
2019-04-10T05:57:24.603Z,38.05
2019-04-10T05:58:17.436Z,35.65
2019-04-10T05:59:09.820Z,38.53
2019-04-10T05:59:58.762Z,31.87
2019-04-10T06:00:49.930Z,35.50
2019-04-10T06:01:42.527Z,32.95
2019-04-10T06:02:32.113Z,35.17
2019-04-10T06:03:22.741Z,36.23
2019-04-10T06:04:13.364Z,35.43
2019-04-10T06:05:05.296Z,36.77
2019-04-10T06:05:54.962Z,35.83
2019-04-10T06:06:48.490Z,32.98
2019-04-10T06:07:38.156Z,32.40
2019-04-10T06:08:29.084Z,33.95
2019-04-10T06:09:20.594Z,34.70
2019-04-10T06:10:10.825Z,34.23
2019-04-10T06:11:01.466Z,36.25
2019-04-10T06:11:53.158Z,31.23
2019-04-10T06:12:43.074Z,32.20
2019-04-10T06:13:34.742Z,33.08
2019-04-10T06:14:26.214Z,34.53
2019-04-10T06:15:18.977Z,34.27
2019-04-10T06:16:09.765Z,35.35
2019-04-10T06:17:02.384Z,36.05
2019-04-10T06:17:51.042Z,36.65
2019-04-10T06:18:40.806Z,34.08
2019-04-10T06:19:32.248Z,33.88
2019-04-10T06:20:23.000Z,33.38
2019-04-10T06:21:14.707Z,34.53
2019-04-10T06:22:05.311Z,34.60
2019-04-10T06:22:55.845Z,32.75
2019-04-10T06:23:47.598Z,34.78
2019-04-10T06:24:36.556Z,36.53
2019-04-10T06:25:29.412Z,36.58
2019-04-10T06:26:19.917Z,32.98
2019-04-10T06:27:10.342Z,35.75
2019-04-10T06:28:01.485Z,35.58
2019-04-10T06:28:53.029Z,33.00
2019-04-10T06:29:45.019Z,33.65
2019-04-10T06:30:34.936Z,34.58
2019-04-10T06:31:25.955Z,34.75
2019-04-10T06:32:17.374Z,34.63
2019-04-10T06:33:09.583Z,36.33
2019-04-10T06:34:00.412Z,35.70
2019-04-10T06:34:50.520Z,36.65
2019-04-10T06:35:42.092Z,32.33
2019-04-10T06:36:33.556Z,33.00
2019-04-10T06:37:24.365Z,35.68
2019-04-10T06:38:16.890Z,34.55
2019-04-10T06:39:07.011Z,35.40
2019-04-10T06:40:07.625Z,33.83
2019-04-10T06:40:50.386Z,34.27
2019-04-10T06:41:41.141Z,34.92
2019-04-10T06:42:35.105Z,34.38
2019-04-10T06:43:22.550Z,36.83
2019-04-10T06:44:13.958Z,32.80
2019-04-10T06:45:05.710Z,32.33
2019-04-10T06:45:54.503Z,36.38
2019-04-10T06:46:44.993Z,34.10
2019-04-10T06:47:36.631Z,34.58
2019-04-10T06:48:28.389Z,35.75
2019-04-10T06:49:20.476Z,37.73
2019-04-10T06:50:10.688Z,34.25
2019-04-10T06:51:02.194Z,38.30
2019-04-10T06:51:53.461Z,37.28
2019-04-10T06:52:43.383Z,36.08
2019-04-10T06:53:35.254Z,33.90
2019-04-10T06:54:26.840Z,33.92
2019-04-10T06:55:16.872Z,34.27
2019-04-10T06:56:09.793Z,39.70
2019-04-10T06:56:59.441Z,38.38
2019-04-10T06:57:55.036Z,37.30
2019-04-10T06:58:41.482Z,37.93
2019-04-10T06:59:32.583Z,37.13
2019-04-10T07:00:23.081Z,37.05
2019-04-10T07:01:14.686Z,38.88
2019-04-10T07:02:17.714Z,38.45
2019-04-10T07:02:56.690Z,37.28
2019-04-10T07:03:56.534Z,38.55
2019-04-10T07:04:46.035Z,36.00
2019-04-10T07:05:40.132Z,37.28
2019-04-10T07:06:22.234Z,37.63
2019-04-10T07:07:13.946Z,36.83
2019-04-10T07:08:10.844Z,36.42
2019-04-10T07:08:53.376Z,36.73
2019-04-10T07:09:45.356Z,35.35
2019-04-10T07:10:48.207Z,36.28
2019-04-10T07:11:30.434Z,39.13
2019-04-10T07:12:18.608Z,38.30
2019-04-10T07:13:10.825Z,38.98
2019-04-10T07:14:00.273Z,40.78
2019-04-10T07:14:55.219Z,40.05
2019-04-10T07:15:45.137Z,37.20
2019-04-10T07:16:37.235Z,37.65
2019-04-10T07:17:27.221Z,37.73
2019-04-10T07:18:20.610Z,39.42
2019-04-10T07:19:11.662Z,39.27
2019-04-10T07:20:01.965Z,38.63
2019-04-10T07:20:57.216Z,38.98
2019-04-10T07:21:44.529Z,38.28
2019-04-10T07:22:36.646Z,38.13
2019-04-10T07:23:29.227Z,37.25
2019-04-10T07:24:18.802Z,35.95
2019-04-10T07:25:11.171Z,38.08
2019-04-10T07:26:01.722Z,37.45
2019-04-10T07:26:51.424Z,35.35
2019-04-10T07:27:41.891Z,33.98
2019-04-10T07:28:33.196Z,37.53
2019-04-10T07:29:26.663Z,36.73
2019-04-10T07:30:15.308Z,34.03
2019-04-10T07:31:08.566Z,35.40
2019-04-10T07:31:58.359Z,36.58
2019-04-10T07:32:49.175Z,36.00
2019-04-10T07:33:40.571Z,37.33
2019-04-10T07:34:30.324Z,36.68
2019-04-10T07:35:21.888Z,33.90
2019-04-10T07:36:14.058Z,34.48
2019-04-10T07:37:03.920Z,34.53
2019-04-10T07:37:56.981Z,37.35
2019-04-10T07:38:46.852Z,34.83
2019-04-10T07:39:37.658Z,36.73
2019-04-10T07:40:33.033Z,37.67
2019-04-10T07:41:22.671Z,37.20
2019-04-10T07:42:10.220Z,36.30
2019-04-10T07:43:00.546Z,35.92
2019-04-10T07:43:55.100Z,38.05
2019-04-10T07:44:43.799Z,37.48
2019-04-10T07:45:35.507Z,38.38
2019-04-10T07:46:26.253Z,34.08
2019-04-10T07:47:17.446Z,35.80
2019-04-10T07:48:08.711Z,37.55
2019-04-10T07:48:58.655Z,35.58
2019-04-10T07:49:50.352Z,36.55
2019-04-10T07:50:39.697Z,34.05
2019-04-10T07:51:29.937Z,37.98
2019-04-10T07:52:22.331Z,37.95
2019-04-10T07:53:11.190Z,36.90
2019-04-10T07:54:04.089Z,33.65
2019-04-10T07:54:55.148Z,35.63
2019-04-10T07:55:56.586Z,35.73
2019-04-10T07:56:37.292Z,35.95
2019-04-10T07:57:28.500Z,36.63
2019-04-10T07:58:19.403Z,30.97
2019-04-10T07:59:09.040Z,35.35
2019-04-10T08:00:00.931Z,37.05
2019-04-10T08:00:51.774Z,37.85
2019-04-10T08:01:42.269Z,37.42
2019-04-10T08:02:34.158Z,35.75
2019-04-10T08:03:25.136Z,35.58
2019-04-10T08:04:15.146Z,35.25
2019-04-10T08:05:06.413Z,36.55
2019-04-10T08:05:58.198Z,36.23
2019-04-10T08:06:48.428Z,37.13
2019-04-10T08:07:40.594Z,37.55
2019-04-10T08:08:30.210Z,35.73
2019-04-10T08:09:21.046Z,35.98
2019-04-10T08:10:12.830Z,35.73
2019-04-10T08:11:03.523Z,36.88
2019-04-10T08:11:56.689Z,37.75
2019-04-10T08:12:50.275Z,37.10
2019-04-10T08:13:38.507Z,37.35
2019-04-10T08:14:29.470Z,33.98
2019-04-10T08:15:19.326Z,36.83
2019-04-10T08:16:10.567Z,36.48
2019-04-10T08:17:00.769Z,34.15
2019-04-10T08:17:51.914Z,32.67
2019-04-10T08:18:42.258Z,32.30
2019-04-10T08:19:35.002Z,35.15
2019-04-10T08:20:24.552Z,36.58
2019-04-10T08:21:15.590Z,36.25
2019-04-10T08:22:06.847Z,33.42
2019-04-10T08:22:57.379Z,34.95
2019-04-10T08:23:48.557Z,36.48
2019-04-10T08:24:38.638Z,34.18
2019-04-10T08:25:29.582Z,34.85
2019-04-10T08:26:21.394Z,37.78
2019-04-10T08:27:11.871Z,37.25
2019-04-10T08:28:02.912Z,35.85
2019-04-10T08:28:53.854Z,36.77
2019-04-10T08:29:44.947Z,37.53
2019-04-10T08:30:36.222Z,35.88
2019-04-10T08:31:26.626Z,36.65
2019-04-10T08:32:18.209Z,37.75
2019-04-10T08:33:09.883Z,35.05
2019-04-10T08:34:01.100Z,34.73
2019-04-10T08:34:51.376Z,35.20
2019-04-10T08:35:43.003Z,36.45
2019-04-10T08:36:35.276Z,36.88
2019-04-10T08:37:26.531Z,36.55
2019-04-10T08:38:17.957Z,36.05
2019-04-10T08:39:09.407Z,35.85
2019-04-10T08:40:00.553Z,36.25
2019-04-10T08:40:50.844Z,36.35
2019-04-10T08:41:43.703Z,35.52
2019-04-10T08:42:33.599Z,34.53
2019-04-10T08:43:24.589Z,34.78
2019-04-10T08:44:15.631Z,37.85
2019-04-10T08:45:07.137Z,36.40
2019-04-10T08:45:58.920Z,35.30
2019-04-10T08:46:50.432Z,37.17
2019-04-10T08:47:40.528Z,34.00
2019-04-10T08:48:32.980Z,33.45
2019-04-10T08:49:22.939Z,34.27
2019-04-10T08:50:14.017Z,36.70
2019-04-10T08:51:04.893Z,36.63
2019-04-10T08:51:56.332Z,36.83
2019-04-10T08:52:49.272Z,39.05
2019-04-10T08:53:39.958Z,33.50
2019-04-10T08:54:30.907Z,36.95
2019-04-10T08:55:24.074Z,36.30
2019-04-10T08:56:14.851Z,38.50
2019-04-10T08:57:05.401Z,37.60
2019-04-10T08:57:56.572Z,36.95
2019-04-10T08:58:48.227Z,39.20
2019-04-10T08:59:38.341Z,37.35
2019-04-10T09:00:29.205Z,38.10
2019-04-10T09:01:20.870Z,39.25
2019-04-10T09:02:11.663Z,38.10
2019-04-10T09:03:02.405Z,36.60
2019-04-10T09:03:52.238Z,39.20
2019-04-10T09:04:43.299Z,38.85
2019-04-10T09:05:34.104Z,34.98
2019-04-10T09:06:25.231Z,38.13
2019-04-10T09:07:16.346Z,36.83
2019-04-10T09:08:07.037Z,37.95
2019-04-10T09:08:59.395Z,37.78
2019-04-10T09:09:50.443Z,38.38
2019-04-10T09:10:41.069Z,39.95
2019-04-10T09:11:33.956Z,38.85
2019-04-10T09:12:23.991Z,35.50
2019-04-10T09:13:14.856Z,35.90
2019-04-10T09:14:06.530Z,34.25
2019-04-10T09:14:57.553Z,34.70
2019-04-10T09:15:49.956Z,37.83
2019-04-10T09:16:40.008Z,36.85
2019-04-10T09:17:31.372Z,37.78
2019-04-10T09:18:21.540Z,37.73
2019-04-10T09:19:13.933Z,37.98
2019-04-10T09:20:05.172Z,39.45
2019-04-10T09:20:55.855Z,37.67
2019-04-10T09:21:46.026Z,38.15
2019-04-10T09:22:49.786Z,39.20
2019-04-10T09:23:37.908Z,34.75
2019-04-10T09:24:19.616Z,40.03
2019-04-10T09:25:09.542Z,37.30
2019-04-10T09:26:01.843Z,36.40
2019-04-10T09:26:52.857Z,36.93
2019-04-10T09:27:44.215Z,39.27
2019-04-10T09:28:34.802Z,37.00
2019-04-10T09:29:25.781Z,35.45
2019-04-10T09:30:16.597Z,37.60
2019-04-10T09:31:07.421Z,37.78
2019-04-10T09:31:57.843Z,38.05
2019-04-10T09:32:50.622Z,39.65
2019-04-10T09:33:40.798Z,37.67
2019-04-10T09:34:31.852Z,38.67
2019-04-10T09:35:22.547Z,37.08
2019-04-10T09:36:13.490Z,35.80
2019-04-10T09:37:03.970Z,35.88
2019-04-10T09:37:54.679Z,37.90
2019-04-10T09:38:45.631Z,39.58
2019-04-10T09:39:36.024Z,38.78
2019-04-10T09:40:27.931Z,40.23
2019-04-10T09:41:17.863Z,36.68
2019-04-10T09:42:08.771Z,40.10
2019-04-10T09:42:59.771Z,37.73
2019-04-10T09:43:49.691Z,37.33
2019-04-10T09:44:40.379Z,40.05
2019-04-10T09:45:31.014Z,38.60
2019-04-10T09:46:21.619Z,37.95
2019-04-10T09:47:11.876Z,39.85
2019-04-10T09:48:02.247Z,38.40
2019-04-10T09:48:54.102Z,38.08
2019-04-10T09:49:47.021Z,39.35
2019-04-10T09:50:35.468Z,39.15
2019-04-10T09:51:26.162Z,38.90
2019-04-10T09:52:16.733Z,38.45
2019-04-10T09:53:08.512Z,38.28
2019-04-10T09:53:59.455Z,36.95
2019-04-10T09:54:50.901Z,37.28
2019-04-10T09:55:41.241Z,38.95
2019-04-10T09:56:32.864Z,38.58
2019-04-10T09:57:22.888Z,38.60
2019-04-10T09:58:14.602Z,36.10
2019-04-10T09:59:05.434Z,38.92
2019-04-10T09:59:56.796Z,35.30
2019-04-10T10:00:48.202Z,36.23
2019-04-10T10:01:38.972Z,38.88
2019-04-10T10:02:29.584Z,36.88
2019-04-10T10:03:21.276Z,38.58
2019-04-10T10:04:13.231Z,35.55
2019-04-10T10:05:02.470Z,39.50
2019-04-10T10:05:53.282Z,38.30
2019-04-10T10:06:45.289Z,40.17
2019-04-10T10:07:34.863Z,41.58
2019-04-10T10:08:25.195Z,37.38
2019-04-10T10:09:17.672Z,38.65
2019-04-10T10:10:08.734Z,38.55
2019-04-10T10:10:59.740Z,38.17
2019-04-10T10:11:51.376Z,39.10
2019-04-10T10:12:42.904Z,40.12
2019-04-10T10:13:33.960Z,37.15
2019-04-10T10:14:23.696Z,36.15
2019-04-10T10:15:14.912Z,39.18
2019-04-10T10:16:06.403Z,38.13
2019-04-10T10:16:57.984Z,40.55
2019-04-10T10:17:48.818Z,40.17
2019-04-10T10:18:38.489Z,37.20
2019-04-10T10:19:30.010Z,37.40
2019-04-10T10:20:19.970Z,39.00
2019-04-10T10:21:12.440Z,38.95
2019-04-10T10:22:04.983Z,37.65
2019-04-10T10:22:53.787Z,38.88
2019-04-10T10:23:45.059Z,39.33
2019-04-10T10:24:35.282Z,35.78
2019-04-10T10:25:26.945Z,42.08
2019-04-10T10:26:18.007Z,41.02
2019-04-10T10:27:09.473Z,40.83
2019-04-10T10:28:00.749Z,40.75
2019-04-10T10:28:52.508Z,39.45
2019-04-10T10:29:41.965Z,38.83
2019-04-10T10:30:33.713Z,40.60
2019-04-10T10:31:26.439Z,34.30
2019-04-10T10:32:21.286Z,40.05
2019-04-10T10:33:11.342Z,39.55
2019-04-10T10:34:02.370Z,38.30
2019-04-10T10:34:53.270Z,37.83
2019-04-10T10:35:44.162Z,34.92
2019-04-10T10:36:41.455Z,37.55
2019-04-10T10:37:26.898Z,39.85
2019-04-10T10:38:17.593Z,37.48
2019-04-10T10:39:15.714Z,36.63
2019-04-10T10:40:08.364Z,39.27
2019-04-10T10:40:57.110Z,38.58
2019-04-10T10:41:48.974Z,40.40
2019-04-10T10:42:41.468Z,38.58
2019-04-10T10:43:32.191Z,39.73
2019-04-10T10:44:22.003Z,40.67
2019-04-10T10:45:14.475Z,36.75
2019-04-10T10:46:04.113Z,41.18
2019-04-10T10:46:55.817Z,36.25
2019-04-10T10:47:47.010Z,40.85
2019-04-10T10:48:38.434Z,38.92
2019-04-10T10:49:28.893Z,37.83
2019-04-10T10:50:19.568Z,40.50
2019-04-10T10:51:10.710Z,41.50
2019-04-10T10:52:01.451Z,39.55
2019-04-10T10:52:52.146Z,35.68
2019-04-10T10:53:42.029Z,38.88
2019-04-10T10:54:32.696Z,40.12
2019-04-10T10:55:23.305Z,41.18
2019-04-10T10:56:13.922Z,41.08
2019-04-10T10:57:04.038Z,38.63
2019-04-10T10:57:55.514Z,40.00
2019-04-10T10:58:46.360Z,39.38
2019-04-10T10:59:37.730Z,38.28